createdAt,value
2023-05-22T00:00:16.754Z,13.97
2023-05-22T00:02:44.083Z,12.30
2023-05-22T00:05:16.312Z,13.37
2023-05-22T00:07:43.642Z,12.27
2023-05-22T00:10:10.937Z,12.43
2023-05-22T00:12:37.848Z,11.90
2023-05-22T00:15:05.152Z,14.17
2023-05-22T00:17:32.121Z,13.37
2023-05-22T00:20:08.301Z,12.27
2023-05-22T00:22:35.782Z,12.40
2023-05-22T00:25:06.655Z,12.57
2023-05-22T00:27:34.276Z,12.17
2023-05-22T00:30:01.448Z,12.67
2023-05-22T00:32:28.564Z,13.07
2023-05-22T00:34:55.557Z,13.70
2023-05-22T00:37:22.301Z,12.63
2023-05-22T00:39:49.421Z,13.23
2023-05-22T00:42:16.155Z,12.93
2023-05-22T00:44:42.989Z,13.30
2023-05-22T00:47:09.843Z,13.37
2023-05-22T00:49:36.853Z,12.77
2023-05-22T00:52:03.883Z,12.80
2023-05-22T00:54:31.711Z,13.47
2023-05-22T00:56:58.581Z,13.77
2023-05-22T00:59:25.478Z,14.07
2023-05-22T01:01:52.259Z,14.90
2023-05-22T01:04:19.210Z,13.70
2023-05-22T01:06:47.896Z,14.60
2023-05-22T01:09:15.120Z,13.23
2023-05-22T01:12:19.567Z,13.83
2023-05-22T01:15:04.467Z,13.53
2023-05-22T01:17:46.530Z,12.70
2023-05-22T01:20:26.043Z,12.90
2023-05-22T01:23:24.670Z,12.87
2023-05-22T01:25:58.080Z,13.77
2023-05-22T01:28:38.801Z,12.73
2023-05-22T01:31:08.420Z,13.67
2023-05-22T01:33:53.716Z,13.33
2023-05-22T01:36:26.328Z,13.30
2023-05-22T01:38:54.106Z,15.00
2023-05-22T01:41:21.749Z,13.93
2023-05-22T01:43:48.595Z,12.83
2023-05-22T01:46:15.619Z,12.53
2023-05-22T01:48:42.466Z,13.17
2023-05-22T01:51:21.431Z,12.40
2023-05-22T01:53:54.655Z,12.40
2023-05-22T01:56:31.036Z,12.30
2023-05-22T01:59:34.628Z,11.60
2023-05-22T02:02:05.763Z,12.37
2023-05-22T02:04:33.140Z,12.23
2023-05-22T02:07:01.383Z,10.90
2023-05-22T02:09:30.315Z,11.33
2023-05-22T02:11:59.007Z,11.67
2023-05-22T02:14:26.650Z,10.80
2023-05-22T02:16:53.688Z,12.03
2023-05-22T02:19:20.534Z,12.03
2023-05-22T02:21:47.299Z,12.03
2023-05-22T02:24:14.040Z,12.77
2023-05-22T02:26:40.809Z,12.17
2023-05-22T02:29:07.541Z,12.60
2023-05-22T02:31:34.416Z,13.30
2023-05-22T02:34:01.364Z,13.23
2023-05-22T02:36:28.153Z,13.70
2023-05-22T02:38:55.757Z,13.97
2023-05-22T02:41:22.906Z,15.87
2023-05-22T02:43:49.772Z,15.90
2023-05-22T02:46:16.515Z,14.13
2023-05-22T02:48:43.350Z,13.30
2023-05-22T02:51:10.100Z,14.90
2023-05-22T02:53:40.367Z,13.40
2023-05-22T02:56:12.189Z,13.30
2023-05-22T02:58:39.752Z,13.03
2023-05-22T03:01:06.895Z,12.60
2023-05-22T03:03:34.313Z,11.63
2023-05-22T03:06:02.017Z,12.23
2023-05-22T03:08:29.327Z,12.37
2023-05-22T03:10:57.362Z,12.83
2023-05-22T03:13:24.361Z,12.37
2023-05-22T03:15:51.500Z,12.47
2023-05-22T03:18:18.339Z,12.40
2023-05-22T03:20:45.058Z,13.60
2023-05-22T03:23:12.814Z,17.57
2023-05-22T03:25:39.742Z,13.30
2023-05-22T03:28:06.704Z,13.30
2023-05-22T03:30:33.886Z,14.07
2023-05-22T03:33:00.847Z,16.13
2023-05-22T03:35:27.593Z,14.27
2023-05-22T03:37:54.421Z,13.17
2023-05-22T03:40:21.259Z,13.30
2023-05-22T03:42:49.594Z,13.93
2023-05-22T03:45:16.575Z,13.53
2023-05-22T03:47:43.353Z,14.70
2023-05-22T03:50:10.625Z,15.00
2023-05-22T03:52:37.399Z,14.50
2023-05-22T03:55:04.628Z,14.37
2023-05-22T03:57:31.331Z,14.90
2023-05-22T04:00:03.040Z,14.10
2023-05-22T04:02:30.424Z,15.80
2023-05-22T04:04:57.440Z,14.53
2023-05-22T04:07:24.217Z,15.07
2023-05-22T04:09:51.039Z,14.93
2023-05-22T04:12:17.798Z,14.63
2023-05-22T04:14:44.549Z,15.13
2023-05-22T04:17:12.100Z,14.93
2023-05-22T04:19:38.803Z,15.10
2023-05-22T04:22:05.979Z,15.77
2023-05-22T04:24:33.219Z,16.13
2023-05-22T04:27:00.541Z,16.77
2023-05-22T04:29:28.755Z,16.80
2023-05-22T04:31:55.747Z,16.97
2023-05-22T04:34:22.562Z,16.33
2023-05-22T04:36:49.443Z,17.37
2023-05-22T04:39:16.288Z,16.40
2023-05-22T04:41:43.119Z,17.30
2023-05-22T04:44:09.921Z,16.67
2023-05-22T04:46:36.688Z,16.37
2023-05-22T04:49:03.604Z,18.27
2023-05-22T04:51:31.460Z,17.53
2023-05-22T04:53:58.766Z,16.03
2023-05-22T04:56:35.326Z,17.63
2023-05-22T04:59:04.940Z,16.40
2023-05-22T05:01:33.312Z,18.37
2023-05-22T05:04:00.934Z,19.37
2023-05-22T05:06:27.915Z,18.97
2023-05-22T05:08:55.157Z,17.70
2023-05-22T05:11:21.884Z,18.87
2023-05-22T05:13:48.636Z,21.77
2023-05-22T05:16:15.355Z,23.77
2023-05-22T05:18:42.097Z,20.53
2023-05-22T05:21:09.241Z,19.23
2023-05-22T05:23:36.493Z,21.60
2023-05-22T05:26:03.327Z,21.53
2023-05-22T05:28:30.090Z,22.23
2023-05-22T05:30:58.116Z,22.80
2023-05-22T05:33:24.977Z,23.67
2023-05-22T05:35:52.917Z,22.40
2023-05-22T05:38:19.644Z,22.17
2023-05-22T05:40:47.162Z,22.70
2023-05-22T05:43:15.430Z,22.57
2023-05-22T05:45:43.036Z,26.97
2023-05-22T05:48:10.091Z,22.03
2023-05-22T05:50:37.186Z,24.17
2023-05-22T05:53:04.177Z,22.63
2023-05-22T05:55:33.281Z,22.90
2023-05-22T05:58:01.168Z,24.80
2023-05-22T06:00:28.081Z,25.37
2023-05-22T06:02:55.334Z,26.90
2023-05-22T06:05:22.699Z,26.10
2023-05-22T06:07:49.921Z,21.90
2023-05-22T06:10:16.790Z,25.53
2023-05-22T06:12:43.673Z,22.97
2023-05-22T06:15:11.231Z,25.53
2023-05-22T06:17:38.030Z,26.03
2023-05-22T06:20:07.628Z,25.13
2023-05-22T06:22:34.388Z,22.57
2023-05-22T06:25:01.527Z,22.53
2023-05-22T06:27:28.345Z,23.00
2023-05-22T06:29:56.412Z,25.07
2023-05-22T06:32:23.444Z,29.97
2023-05-22T06:34:50.267Z,23.80
2023-05-22T06:37:17.152Z,27.53
2023-05-22T06:39:43.929Z,27.50
2023-05-22T06:42:10.752Z,23.47
2023-05-22T06:44:37.551Z,24.40
2023-05-22T06:47:04.527Z,24.63
2023-05-22T06:49:31.303Z,24.73
2023-05-22T06:51:58.041Z,23.60
2023-05-22T06:54:28.697Z,34.37
2023-05-22T06:56:56.636Z,31.13
2023-05-22T06:59:23.431Z,27.27
2023-05-22T07:01:50.353Z,29.53
2023-05-22T07:04:17.492Z,27.37
2023-05-22T07:06:45.900Z,25.20
2023-05-22T07:09:14.165Z,25.03
2023-05-22T07:11:44.032Z,25.77
2023-05-22T07:14:12.811Z,27.57
2023-05-22T07:16:40.630Z,28.63
2023-05-22T07:19:09.087Z,26.33
2023-05-22T07:21:36.444Z,24.40
2023-05-22T07:24:08.378Z,26.73
2023-05-22T07:26:36.357Z,27.37
2023-05-22T07:29:04.008Z,31.60
2023-05-22T07:31:34.815Z,30.00
2023-05-22T07:34:01.736Z,31.10
2023-05-22T07:36:28.477Z,30.07
2023-05-22T07:38:55.318Z,32.67
2023-05-22T07:41:22.929Z,33.13
2023-05-22T07:43:49.977Z,33.37
2023-05-22T07:46:16.899Z,33.27
2023-05-22T07:48:44.061Z,34.17
2023-05-22T07:51:10.879Z,34.77
2023-05-22T07:53:37.748Z,33.40
2023-05-22T07:56:04.603Z,32.73
2023-05-22T07:58:31.620Z,33.60
2023-05-22T08:00:58.614Z,30.73
2023-05-22T08:03:25.501Z,30.30
2023-05-22T08:05:52.557Z,30.73
2023-05-22T08:08:19.314Z,39.73
2023-05-22T08:11:01.735Z,38.40
2023-05-22T08:13:29.722Z,35.87
2023-05-22T08:16:00.357Z,36.83
2023-05-22T08:18:29.632Z,35.73
2023-05-22T08:20:56.860Z,34.53
2023-05-22T08:23:23.677Z,35.20
2023-05-22T08:25:50.551Z,35.97
2023-05-22T08:28:17.382Z,36.20
2023-05-22T08:30:44.304Z,36.77
2023-05-22T08:33:12.514Z,37.27
2023-05-22T08:35:39.437Z,34.37
2023-05-22T08:38:06.272Z,37.97
2023-05-22T08:40:41.308Z,36.53
2023-05-22T08:43:09.597Z,35.70
2023-05-22T08:45:36.441Z,34.23
2023-05-22T08:48:06.454Z,39.03
2023-05-22T08:50:34.963Z,37.43
2023-05-22T08:53:07.107Z,38.33
2023-05-22T08:55:34.683Z,39.97
2023-05-22T08:58:01.589Z,38.57
2023-05-22T09:00:29.887Z,38.57
2023-05-22T09:02:57.862Z,34.77
2023-05-22T09:05:27.003Z,35.73
2023-05-22T09:07:56.545Z,35.47
2023-05-22T09:10:25.854Z,36.83
2023-05-22T09:13:04.757Z,33.83
2023-05-22T09:15:32.639Z,35.90
2023-05-22T09:18:00.215Z,32.77
2023-05-22T09:20:27.225Z,32.47
2023-05-22T09:22:54.098Z,36.13
2023-05-22T09:25:21.822Z,31.10
2023-05-22T09:27:49.047Z,32.20
2023-05-22T09:30:19.847Z,29.23
2023-05-22T09:32:48.938Z,31.53
2023-05-22T09:35:16.788Z,31.70
2023-05-22T09:37:43.552Z,33.63
2023-05-22T09:40:14.458Z,32.97
2023-05-22T09:42:45.025Z,31.47
2023-05-22T09:45:11.919Z,32.93
2023-05-22T09:47:39.178Z,35.67
2023-05-22T09:50:07.639Z,34.83
2023-05-22T09:52:35.923Z,32.90
2023-05-22T09:55:07.379Z,32.97
2023-05-22T09:57:45.660Z,36.23
2023-05-22T10:00:16.272Z,35.17
2023-05-22T10:02:48.256Z,39.27
2023-05-22T10:05:24.513Z,35.83
2023-05-22T10:07:54.756Z,37.50
2023-05-22T10:10:23.474Z,36.43
2023-05-22T10:13:04.790Z,37.07
2023-05-22T10:15:32.375Z,38.73
2023-05-22T10:17:59.630Z,36.90
2023-05-22T10:20:27.975Z,33.63
2023-05-22T10:22:55.395Z,35.53
2023-05-22T10:25:22.561Z,37.83
2023-05-22T10:27:52.692Z,32.03
2023-05-22T10:30:22.472Z,34.47
2023-05-22T10:33:06.102Z,34.00
2023-05-22T10:35:40.238Z,30.83
2023-05-22T10:38:28.289Z,33.77
2023-05-22T10:40:55.465Z,33.70
2023-05-22T10:43:22.965Z,36.50
2023-05-22T10:45:49.823Z,33.60
2023-05-22T10:48:21.855Z,31.53
2023-05-22T10:50:53.191Z,35.80
2023-05-22T10:53:32.582Z,30.27
2023-05-22T10:56:02.905Z,30.57
2023-05-22T10:58:37.512Z,34.43
2023-05-22T11:01:17.494Z,33.23
2023-05-22T11:04:16.218Z,32.20
2023-05-22T11:07:15.707Z,32.00
2023-05-22T11:09:43.545Z,29.90
2023-05-22T11:12:16.783Z,32.57
2023-05-22T11:14:47.933Z,29.93
2023-05-22T11:17:18.975Z,35.10
2023-05-22T11:19:49.876Z,37.57
2023-05-22T11:22:17.982Z,33.47
2023-05-22T11:24:44.985Z,32.03
2023-05-22T11:27:11.798Z,32.33
2023-05-22T11:29:41.829Z,33.47
2023-05-22T11:32:09.401Z,36.47
2023-05-22T11:34:37.270Z,34.43
2023-05-22T11:37:04.127Z,36.17
2023-05-22T11:39:32.926Z,35.30
2023-05-22T11:41:59.702Z,38.17
2023-05-22T11:44:27.998Z,35.85
2023-05-22T11:46:54.878Z,34.28
2023-05-22T11:49:25.700Z,38.72
2023-05-22T11:51:52.589Z,37.35
2023-05-22T11:54:19.614Z,39.13
2023-05-22T11:56:46.741Z,36.08
2023-05-22T11:59:13.574Z,36.30
2023-05-22T12:01:40.401Z,35.13
2023-05-22T12:04:07.286Z,39.97
2023-05-22T12:06:34.361Z,38.67
2023-05-22T12:09:01.728Z,60.80
2023-05-22T12:11:28.617Z,43.17
2023-05-22T12:14:02.770Z,43.05
2023-05-22T12:16:34.657Z,41.85
2023-05-22T12:19:05.992Z,35.78
2023-05-22T12:21:32.926Z,33.03
2023-05-22T12:24:04.176Z,33.70
2023-05-22T12:26:31.800Z,38.17
2023-05-22T12:28:59.505Z,38.25
2023-05-22T12:31:26.652Z,37.17
2023-05-22T12:33:57.094Z,32.63
2023-05-22T12:36:39.957Z,30.27
2023-05-22T12:39:11.273Z,31.63
2023-05-22T12:41:41.240Z,32.80
2023-05-22T12:44:08.362Z,31.40
2023-05-22T12:46:35.320Z,32.58
2023-05-22T12:49:02.467Z,33.47
2023-05-22T12:51:31.387Z,32.05
2023-05-22T12:53:59.283Z,30.95
2023-05-22T12:56:26.303Z,31.67
2023-05-22T12:58:53.236Z,29.67
2023-05-22T13:01:20.257Z,29.65
2023-05-22T13:03:47.053Z,30.30
2023-05-22T13:06:13.955Z,28.98
2023-05-22T13:08:40.700Z,30.00
2023-05-22T13:11:07.439Z,27.48
2023-05-22T13:13:34.235Z,29.25
2023-05-22T13:16:01.211Z,27.20
2023-05-22T13:18:27.995Z,27.73
2023-05-22T13:20:56.592Z,27.25
2023-05-22T13:23:23.651Z,30.90
2023-05-22T13:25:50.553Z,28.20
2023-05-22T13:28:17.333Z,26.65
2023-05-22T13:30:44.088Z,26.55
2023-05-22T13:33:15.900Z,24.83
2023-05-22T13:35:45.565Z,24.75
2023-05-22T13:38:12.427Z,24.65
2023-05-22T13:40:39.554Z,26.40
2023-05-22T13:43:06.387Z,25.10
2023-05-22T13:45:33.344Z,24.80
2023-05-22T13:48:00.258Z,24.42
2023-05-22T13:50:27.085Z,21.95
2023-05-22T13:52:53.943Z,21.95
2023-05-22T13:55:21.194Z,22.88
2023-05-22T13:57:47.936Z,25.63
2023-05-22T14:00:15.261Z,22.88
2023-05-22T14:02:42.110Z,21.80
2023-05-22T14:05:09.160Z,23.33
2023-05-22T14:07:36.001Z,25.33
2023-05-22T14:10:02.824Z,25.95
2023-05-22T14:12:29.746Z,26.38
2023-05-22T14:14:56.588Z,28.15
2023-05-22T14:17:23.354Z,24.17
2023-05-22T14:19:50.112Z,23.60
2023-05-22T14:22:17.012Z,32.85
2023-05-22T14:24:43.797Z,41.35
2023-05-22T14:27:10.526Z,32.15
2023-05-22T14:29:37.294Z,32.42
2023-05-22T14:32:05.402Z,32.15
2023-05-22T14:34:32.370Z,38.83
2023-05-22T14:36:59.193Z,38.90
2023-05-22T14:39:26.276Z,36.03
2023-05-22T14:41:54.018Z,33.70
2023-05-22T14:44:22.780Z,32.88
2023-05-22T14:46:51.186Z,54.53
2023-05-22T14:49:18.187Z,39.03
2023-05-22T14:51:48.274Z,44.30
2023-05-22T14:54:19.297Z,57.55
2023-05-22T14:56:46.559Z,41.47
2023-05-22T14:59:14.375Z,45.03
2023-05-22T15:01:41.327Z,44.20
2023-05-22T15:04:09.197Z,42.63
2023-05-22T15:06:36.454Z,52.38
2023-05-22T15:09:03.434Z,39.58
2023-05-22T15:11:30.233Z,44.53
2023-05-22T15:13:57.011Z,38.10
2023-05-22T15:16:25.827Z,42.20
2023-05-22T15:18:53.680Z,40.83
2023-05-22T15:21:21.151Z,43.00
2023-05-22T15:23:48.424Z,42.03
2023-05-22T15:26:16.337Z,45.35
2023-05-22T15:28:43.149Z,48.35
2023-05-22T15:31:12.187Z,46.10
2023-05-22T15:33:39.891Z,45.83
2023-05-22T15:36:06.993Z,44.58
2023-05-22T15:38:34.008Z,46.00
2023-05-22T15:41:10.633Z,40.42
2023-05-22T15:43:42.923Z,40.13
2023-05-22T15:46:12.660Z,38.33
2023-05-22T15:48:42.556Z,35.97
2023-05-22T15:51:09.934Z,35.35
2023-05-22T15:53:36.984Z,35.10
2023-05-22T15:56:04.125Z,33.10
2023-05-22T15:58:31.224Z,31.42
2023-05-22T16:00:58.252Z,29.05
2023-05-22T16:03:25.869Z,32.05
2023-05-22T16:05:55.326Z,32.28
2023-05-22T16:08:22.494Z,25.80
2023-05-22T16:10:49.502Z,30.30
2023-05-22T16:13:20.728Z,30.80
2023-05-22T16:16:06.513Z,25.63
2023-05-22T16:18:33.910Z,22.75
2023-05-22T16:21:09.146Z,25.85
2023-05-22T16:23:38.177Z,25.58
2023-05-22T16:26:06.824Z,23.75
2023-05-22T16:28:39.176Z,22.90
2023-05-22T16:31:08.176Z,22.50
2023-05-22T16:33:36.553Z,20.70
2023-05-22T16:36:04.194Z,12.95
2023-05-22T16:38:30.936Z,16.65
2023-05-22T16:40:58.317Z,10.75
2023-05-22T16:43:25.145Z,11.10
2023-05-22T16:45:51.956Z,12.98
2023-05-22T16:48:18.817Z,11.43
2023-05-22T16:50:46.886Z,14.18
2023-05-22T16:53:14.004Z,11.63
2023-05-22T16:55:41.065Z,12.60
2023-05-22T16:58:09.351Z,11.05
2023-05-22T17:00:36.664Z,10.53
2023-05-22T17:03:04.030Z,11.15
2023-05-22T17:05:31.018Z,12.18
2023-05-22T17:07:57.810Z,9.65
2023-05-22T17:10:26.875Z,10.70
2023-05-22T17:12:56.764Z,10.77
2023-05-22T17:15:26.076Z,11.17
2023-05-22T17:17:52.929Z,10.63
2023-05-22T17:20:22.319Z,10.60
2023-05-22T17:22:49.369Z,10.60
2023-05-22T17:25:16.498Z,10.80
2023-05-22T17:27:50.321Z,10.53
2023-05-22T17:30:17.528Z,11.47
2023-05-22T17:32:45.378Z,11.73
2023-05-22T17:35:12.289Z,11.97
2023-05-22T17:37:39.085Z,12.80
2023-05-22T17:40:06.784Z,11.77
2023-05-22T17:42:33.553Z,11.93
2023-05-22T17:45:00.329Z,11.50
2023-05-22T17:47:27.126Z,12.47
2023-05-22T17:49:54.033Z,14.40
2023-05-22T17:52:20.861Z,12.63
2023-05-22T17:54:47.599Z,12.90
2023-05-22T17:57:14.466Z,11.97
2023-05-22T17:59:41.235Z,13.40
2023-05-22T18:02:09.298Z,13.13
2023-05-22T18:04:36.636Z,12.80
2023-05-22T18:07:04.075Z,12.83
2023-05-22T18:09:31.136Z,12.73
2023-05-22T18:11:59.120Z,16.03
2023-05-22T18:14:26.271Z,12.60
2023-05-22T18:17:00.373Z,14.03
2023-05-22T18:19:27.375Z,13.43
2023-05-22T18:21:54.303Z,14.43
2023-05-22T18:24:25.197Z,13.03
2023-05-22T18:26:52.219Z,13.57
2023-05-22T18:29:19.203Z,13.10
2023-05-22T18:31:46.506Z,12.70
2023-05-22T18:34:13.922Z,12.90
2023-05-22T18:36:44.135Z,13.77
2023-05-22T18:39:11.647Z,13.63
2023-05-22T18:41:39.013Z,14.30
2023-05-22T18:44:05.866Z,13.32
2023-05-22T18:46:32.822Z,14.13
2023-05-22T18:48:59.814Z,16.03
2023-05-22T18:51:26.924Z,15.83
2023-05-22T18:53:53.953Z,14.57
2023-05-22T18:56:20.727Z,12.83
2023-05-22T18:58:47.572Z,12.27
2023-05-22T19:01:14.377Z,11.20
2023-05-22T19:03:41.401Z,9.93
2023-05-22T19:06:08.473Z,10.07
2023-05-22T19:08:35.522Z,10.33
2023-05-22T19:11:02.400Z,8.97
2023-05-22T19:13:29.595Z,8.27
2023-05-22T19:15:57.518Z,6.67
2023-05-22T19:18:24.877Z,6.20
2023-05-22T19:20:51.695Z,5.23
2023-05-22T19:23:18.870Z,5.30
2023-05-22T19:25:46.058Z,5.30
2023-05-22T19:28:12.780Z,5.57
2023-05-22T19:30:40.022Z,5.83
2023-05-22T19:33:08.975Z,5.17
2023-05-22T19:35:36.027Z,4.70
2023-05-22T19:38:02.726Z,5.00
2023-05-22T19:40:29.512Z,5.00
2023-05-22T19:42:56.494Z,5.43
2023-05-22T19:45:26.110Z,5.17
2023-05-22T19:47:53.092Z,4.87
2023-05-22T19:50:19.929Z,5.53
2023-05-22T19:52:46.718Z,5.03
2023-05-22T19:55:13.479Z,4.60
2023-05-22T19:57:40.741Z,5.73
2023-05-22T20:00:11.165Z,4.50
2023-05-22T20:02:38.661Z,5.27
2023-05-22T20:05:09.807Z,6.03
2023-05-22T20:07:36.696Z,4.70
2023-05-22T20:10:06.946Z,5.17
2023-05-22T20:12:34.145Z,5.07
2023-05-22T20:15:02.933Z,5.27
2023-05-22T20:17:30.384Z,5.27
2023-05-22T20:20:00.764Z,4.90
2023-05-22T20:22:28.136Z,5.77
2023-05-22T20:24:54.916Z,5.07
2023-05-22T20:27:21.738Z,4.80
2023-05-22T20:29:51.432Z,5.83
2023-05-22T20:32:18.403Z,4.50
2023-05-22T20:34:46.732Z,6.77
2023-05-22T20:37:13.844Z,5.97
2023-05-22T20:39:43.765Z,5.43
2023-05-22T20:42:11.880Z,6.43
2023-05-22T20:44:39.429Z,4.80
2023-05-22T20:47:06.624Z,5.23
2023-05-22T20:49:34.983Z,5.73
2023-05-22T20:52:03.050Z,6.10
2023-05-22T20:54:34.751Z,7.47
2023-05-22T20:57:02.151Z,5.53
2023-05-22T20:59:29.310Z,5.80
2023-05-22T21:01:57.355Z,5.67
2023-05-22T21:04:24.718Z,6.20
2023-05-22T21:06:51.587Z,5.23
2023-05-22T21:09:18.458Z,6.23
2023-05-22T21:11:45.454Z,7.37
2023-05-22T21:14:12.336Z,5.53
2023-05-22T21:16:40.335Z,5.90
2023-05-22T21:19:07.697Z,5.97
2023-05-22T21:21:36.403Z,6.03
2023-05-22T21:24:03.585Z,6.23
2023-05-22T21:26:30.572Z,9.03
2023-05-22T21:28:57.592Z,6.30
2023-05-22T21:31:24.429Z,7.23
2023-05-22T21:33:51.865Z,6.57
2023-05-22T21:36:18.781Z,5.83
2023-05-22T21:38:45.970Z,5.17
2023-05-22T21:41:13.254Z,6.53
2023-05-22T21:43:40.001Z,6.07
2023-05-22T21:46:06.950Z,5.67
2023-05-22T21:48:34.619Z,7.20
2023-05-22T21:51:01.465Z,7.40
2023-05-22T21:53:28.210Z,6.20
2023-05-22T21:55:55.050Z,8.07
2023-05-22T21:58:22.121Z,6.07
2023-05-22T22:00:48.850Z,6.57
2023-05-22T22:03:16.165Z,7.10
2023-05-22T22:05:42.998Z,7.93
2023-05-22T22:08:09.983Z,6.83
2023-05-22T22:10:36.747Z,7.30
2023-05-22T22:13:03.580Z,6.73
2023-05-22T22:15:31.806Z,6.33
2023-05-22T22:18:02.394Z,6.57
2023-05-22T22:20:44.124Z,6.80
2023-05-22T22:23:11.413Z,6.67
2023-05-22T22:25:39.462Z,6.90
2023-05-22T22:28:07.556Z,6.90
2023-05-22T22:30:35.560Z,7.73
2023-05-22T22:33:02.625Z,9.00
2023-05-22T22:35:29.795Z,7.23
2023-05-22T22:37:56.973Z,6.83
2023-05-22T22:40:25.971Z,7.50
2023-05-22T22:42:53.749Z,9.13
2023-05-22T22:45:20.582Z,7.20
2023-05-22T22:47:48.440Z,7.83
2023-05-22T22:50:15.194Z,10.00
2023-05-22T22:52:45.683Z,10.07
2023-05-22T22:55:12.655Z,7.93
2023-05-22T22:57:39.507Z,7.60
2023-05-22T23:00:06.924Z,9.37
2023-05-22T23:02:33.727Z,7.40
2023-05-22T23:05:00.656Z,7.87
2023-05-22T23:07:28.278Z,8.57
2023-05-22T23:09:54.985Z,7.73
2023-05-22T23:12:21.786Z,7.57
2023-05-22T23:14:50.617Z,8.90
2023-05-22T23:17:17.448Z,8.47
2023-05-22T23:19:44.800Z,7.77
2023-05-22T23:22:11.539Z,7.43
2023-05-22T23:24:38.316Z,8.00
2023-05-22T23:27:05.516Z,8.23
2023-05-22T23:29:32.517Z,7.90
2023-05-22T23:31:59.517Z,7.60
2023-05-22T23:34:26.448Z,9.37
2023-05-22T23:36:53.244Z,7.37
2023-05-22T23:39:20.066Z,7.73
2023-05-22T23:41:46.813Z,7.17
2023-05-22T23:44:13.565Z,6.90
2023-05-22T23:46:41.469Z,7.10
2023-05-22T23:49:08.504Z,7.17
2023-05-22T23:51:35.197Z,6.30
2023-05-22T23:54:01.902Z,6.13
2023-05-22T23:56:28.675Z,5.10
2023-05-22T23:58:56.267Z,4.40
